Date,TemperatureHighF,TemperatureAvgF,TemperatureLowF,DewpointHighF,DewpointAvgF,DewpointLowF,HumidityHigh,HumidityAvg,HumidityLow,PressureMaxIn,PressureMinIn,WindSpeedMaxMPH,WindSpeedAvgMPH,GustSpeedMaxMPH,PrecipitationSumIn
2013-1-1,37,27,8,28,18,4,88,69,58,30.01,29.78,23,6,24,0.00
2013-1-2,28,14,-2,18,7,-4,90,74,48,30.28,29.98,26,4,26,0.00
2013-1-3,17,7,-3,9,0,-7,83,71,57,30.30,30.00,8,2,8,0.00
2013-1-4,40,29,16,24,19,10,87,67,49,30.01,29.87,18,2,18,0.00
2013-1-5,38,28,18,23,18,15,89,69,49,30.27,30.19,26,3,26,0.00
2013-1-6,42,32,19,31,26,16,93,78,60,30.21,29.92,12,2,12,0.00
2013-1-7,38,28,12,32,22,10,93,80,64,30.40,30.00,21,3,21,0.00
2013-1-8,42,23,7,29,18,4,94,83,58,30.40,30.30,10,1,11,0.00
2013-1-9,46,29,12,33,24,10,95,81,45,30.39,30.00,37,3,38,0.00
2013-1-10,45,38,30,30,26,23,78,62,54,30.57,30.16,36,7,38,0.00
2013-1-11,38,31,22,36,27,20,96,86,61,30.56,30.10,21,3,23,0.06
2013-1-12,44,40,37,42,39,36,98,96,92,30.17,30.09,13,2,14,0.00
2013-1-13,46,42,37,45,41,36,99,98,95,30.15,29.94,18,3,18,0.01
2013-1-14,47,42,34,45,36,24,98,79,59,30.34,29.84,23,7,24,0.01
2013-1-15,37,33,30,26,24,22,82,68,56,30.37,30.25,14,3,15,0.00
2013-1-16,32,30,28,30,28,24,97,92,78,30.25,29.84,3,0,5,0.00
2013-1-17,38,31,23,31,23,10,97,75,53,30.19,29.87,26,4,27,0.19
2013-1-18,24,18,12,12,6,-4,85,59,38,30.44,30.12,19,4,19,0.00
2013-1-19,44,35,24,28,21,11,65,57,48,30.28,29.79,23,7,24,0.02
2013-1-20,46,36,22,34,23,10,79,58,28,30.05,29.57,25,7,28,0.00
2013-1-21,27,22,17,19,14,10,92,71,49,30.09,29.83,13,3,13,0.00
2013-1-22,20,16,9,14,2,-6,84,56,35,30.15,29.81,23,6,24,0.00
2013-1-23,12,6,-1,1,-4,-7,88,64,48,30.25,30.15,23,4,24,0.00
2013-1-24,15,7,-4,5,-3,-7,88,67,39,30.41,30.19,33,6,34,0.00
2013-1-25,18,12,6,12,2,-3,88,64,42,30.44,30.10,21,4,22,0.00
2013-1-26,22,14,7,9,6,3,90,72,47,30.37,30.10,22,4,22,0.00
2013-1-27,29,19,12,9,3,-6,80,53,22,30.53,30.37,18,4,18,0.00
2013-1-28,32,24,15,31,19,7,96,80,51,30.51,29.97,14,2,14,0.00
2013-1-29,39,32,27,37,30,25,96,93,88,30.17,29.99,23,2,23,0.35
2013-1-30,56,48,39,54,47,37,98,96,93,30.03,29.32,27,8,28,0.20
2013-1-31,54,40,27,53,32,14,99,75,48,29.67,28.89,36,7,50,0.50
2013-2-1,28,24,20,20,12,7,82,61,46,30.18,29.66,31,6,32,0.00
2013-2-2,28,21,9,16,11,7,92,67,45,30.25,30.03,21,3,22,0.00
2013-2-3,30,22,14,18,15,12,94,77,52,30.07,29.79,9,1,9,0.00
2013-2-4,25,21,12,18,13,9,91,72,53,29.98,29.79,25,4,26,0.00
2013-2-5,30,23,16,23,14,9,88,69,49,30.04,29.90,9,1,9,0.00
2013-2-6,35,27,19,27,17,4,93,68,37,30.40,29.91,26,5,27,0.00
2013-2-7,27,20,14,12,7,4,78,57,40,30.56,30.39,13,3,13,0.00
2013-2-8,29,25,19,26,20,9,95,81,58,30.40,29.83,20,3,20,0.00
2013-2-9,27,20,9,23,12,1,95,73,45,30.39,29.86,25,8,27,0.00
2013-2-10,30,12,-6,10,3,-10,88,70,37,30.54,30.29,9,1,9,0.00
2013-2-11,40,33,13,37,29,8,96,85,60,30.29,29.67,25,6,26,0.03
2013-2-12,39,37,33,33,28,24,96,72,61,29.96,29.70,25,4,25,0.00
2013-2-13,43,34,31,28,24,21,83,66,46,29.92,29.74,11,2,11,0.00
2013-2-14,42,31,19,27,23,16,94,73,53,29.97,29.74,15,1,15,0.00
2013-2-15,50,39,29,32,28,24,93,64,40,30.03,29.90,16,4,16,0.00
2013-2-16,32,29,24,30,19,9,96,66,48,30.03,29.86,21,5,21,0.00
2013-2-17,24,20,14,11,5,1,63,53,39,29.97,29.70,40,11,42,0.00
2013-2-18,28,18,10,11,4,0,79,55,36,30.24,29.97,39,8,41,0.00
2013-2-19,42,30,16,34,23,11,96,76,51,30.18,29.64,24,4,25,0.04
2013-2-20,33,28,25,28,15,8,80,59,42,29.93,29.68,29,8,29,0.00
2013-2-21,26,22,19,16,12,8,77,66,61,30.40,29.91,30,8,31,0.00
2013-2-22,37,28,20,26,20,15,83,70,56,30.45,30.25,15,3,16,0.00
2013-2-23,37,35,32,35,31,26,96,88,72,30.25,29.88,19,4,19,0.00
2013-2-24,40,35,32,36,30,25,97,85,64,30.00,29.79,21,4,22,0.05
2013-2-25,41,34,23,30,27,21,95,76,58,30.26,30.00,16,2,17,0.00
2013-2-26,46,36,24,31,28,23,96,73,49,30.33,30.05,19,2,19,0.00
2013-2-27,44,36,32,39,34,26,97,91,66,30.06,29.56,19,2,19,0.69
2013-2-28,43,38,34,38,35,33,98,91,76,29.62,29.57,12,2,12,0.19
2013-3-1,42,36,32,33,31,26,93,82,67,29.79,29.61,23,5,24,0.02
2013-3-2,35,31,26,26,24,20,80,74,65,29.79,29.73,21,6,22,0.00
2013-3-3,32,26,22,23,19,15,86,74,64,29.79,29.71,28,7,29,0.00
2013-3-4,31,29,26,25,22,20,88,76,67,29.93,29.77,33,9,33,0.00
2013-3-5,41,33,29,28,25,22,86,73,58,30.09,29.93,21,6,22,0.00
2013-3-6,43,36,28,33,28,25,87,74,60,30.13,30.05,22,6,22,0.00
2013-3-7,38,34,30,31,27,23,97,77,58,30.17,30.10,19,7,19,0.00
2013-3-8,42,33,29,34,29,25,98,87,66,30.31,30.11,18,6,18,0.07
2013-3-9,51,36,25,28,25,21,91,67,36,30.36,30.28,15,4,15,0.00
2013-3-10,54,38,18,34,26,17,95,66,36,30.37,30.20,15,4,21,0.00
2013-3-11,49,43,36,43,37,32,86,77,65,30.26,29.99,24,7,25,0.00
2013-3-12,53,48,39,52,45,33,97,90,80,30.01,29.68,24,6,25,0.86
2013-3-13,46,38,32,33,28,23,90,69,42,29.89,29.79,17,4,18,0.00
2013-3-14,33,28,24,26,15,7,86,59,49,29.93,29.85,29,8,30,0.00
2013-3-15,39,30,20,31,20,11,93,65,48,29.97,29.68,23,4,24,0.00
2013-3-16,36,30,22,25,17,12,77,60,41,29.94,29.78,15,4,16,0.00
2013-3-17,35,28,20,17,11,7,72,51,33,30.35,29.94,23,6,28,0.00
2013-3-18,38,26,12,26,12,4,94,62,28,30.47,30.09,14,2,14,0.00
2013-3-19,35,31,26,33,29,25,97,94,84,30.10,29.71,18,2,25,0.12
2013-3-20,38,27,14,28,21,12,95,78,47,29.84,29.78,23,3,23,0.00
2013-3-21,36,26,12,22,14,9,93,63,35,29.84,29.67,17,3,18,0.01
2013-3-22,37,28,15,27,20,12,89,74,58,29.85,29.71,20,3,21,0.02
2013-3-23,40,34,30,27,24,20,86,65,46,29.92,29.80,29,8,30,0.00
2013-3-24,43,36,31,26,24,22,71,60,46,29.92,29.76,11,4,15,0.00
2013-3-25,45,37,28,30,26,23,81,67,51,29.79,29.52,16,4,17,0.00
2013-3-26,48,39,27,30,26,20,82,62,36,29.86,29.62,24,3,24,0.00
2013-3-27,51,39,24,32,27,21,88,63,38,29.96,29.84,25,5,25,0.00
2013-3-28,48,42,37,36,33,30,85,71,58,30.11,29.95,18,6,19,0.00
2013-3-29,49,43,37,34,32,29,75,63,48,30.14,30.06,21,6,21,0.00
2013-3-30,54,42,25,33,26,20,94,57,28,30.15,30.06,21,4,21,0.00
2013-3-31,56,41,23,40,29,21,95,67,34,30.13,29.72,26,4,26,0.10
2013-4-1,52,40,31,47,33,17,98,78,41,29.90,29.58,30,6,31,0.04
2013-4-2,36,31,26,24,19,12,90,62,41,30.04,29.89,30,6,32,0.00
2013-4-3,39,33,27,23,18,14,85,55,36,30.30,30.03,31,8,32,0.00
2013-4-4,55,41,27,26,22,18,76,48,27,30.37,29.98,18,5,19,0.00
2013-4-5,53,44,35,31,25,19,70,49,29,30.00,29.79,29,6,30,0.00
2013-4-6,47,36,27,28,13,6,70,42,22,30.31,30.00,21,5,25,0.00
2013-4-7,60,45,26,41,28,14,79,53,29,30.26,29.88,35,8,42,0.00
2013-4-8,62,50,40,41,36,32,89,61,34,30.14,29.93,19,4,20,0.00
2013-4-9,62,56,51,49,45,38,78,66,54,30.04,29.84,24,6,24,0.01
2013-4-10,57,51,46,51,48,44,97,90,76,30.00,29.83,16,3,16,0.50
2013-4-11,46,40,32,45,32,22,96,74,45,30.16,29.90,22,7,23,0.10
2013-4-12,40,36,32,37,34,30,97,92,85,30.15,29.79,18,2,21,0.52
2013-4-13,51,43,37,42,38,36,98,85,66,29.95,29.83,20,2,21,0.01
2013-4-14,47,41,29,38,31,26,90,69,48,30.25,29.94,25,4,26,0.00
2013-4-15,61,44,26,38,31,24,96,65,38,30.39,30.23,21,3,21,0.00
2013-4-16,61,54,46,54,44,32,91,71,55,30.32,30.02,27,8,28,0.13
2013-4-17,64,53,44,44,36,31,75,54,29,30.33,30.14,18,5,19,0.00
2013-4-18,65,51,32,48,38,30,94,64,36,30.35,30.02,34,7,34,0.00
2013-4-19,72,62,44,63,56,42,94,84,71,30.02,29.52,26,9,27,0.73
2013-4-20,54,45,35,43,35,24,97,71,38,30.34,29.74,24,5,25,0.19
2013-4-21,51,39,30,27,22,17,83,52,28,30.66,30.34,18,5,18,0.00
2013-4-22,60,44,28,31,26,18,91,53,24,30.72,30.49,22,4,22,0.00
2013-4-23,55,43,29,41,34,26,91,69,57,30.54,30.14,12,2,12,0.00
2013-4-24,74,53,30,52,43,29,97,70,42,30.15,29.69,25,4,26,0.00
2013-4-25,61,48,36,53,33,24,85,59,30,30.27,29.75,27,6,28,0.05
2013-4-26,58,45,30,39,32,28,95,64,36,30.45,30.27,19,4,19,0.00
2013-4-27,66,48,29,39,32,26,95,60,25,30.46,30.27,13,2,13,0.00
2013-4-28,75,56,34,43,37,32,95,55,24,30.32,30.10,20,3,21,0.00
2013-4-29,60,56,51,49,43,32,92,64,40,30.23,30.17,19,4,21,0.00
2013-4-30,74,60,47,50,43,32,93,59,28,30.31,30.22,13,2,14,0.01
2013-5-1,78,61,39,42,35,29,84,42,17,30.45,30.30,13,3,13,0.00
2013-5-2,84,64,42,48,42,36,92,50,20,30.46,30.25,26,3,26,0.00
2013-5-3,74,61,48,42,36,30,75,42,22,30.48,30.30,14,3,15,0.00
2013-5-4,79,61,40,48,43,35,96,57,26,30.36,30.15,12,2,13,0.00
2013-5-5,77,60,40,46,39,30,96,52,19,30.30,30.13,16,3,16,0.00
2013-5-6,76,59,39,52,42,25,97,59,20,30.26,30.07,14,3,14,0.00
2013-5-7,82,66,45,57,52,44,97,64,33,30.17,30.02,13,2,13,0.00
2013-5-8,72,63,53,64,58,52,96,84,63,30.14,29.97,19,1,19,0.25
2013-5-9,72,60,49,59,55,48,99,84,56,30.00,29.86,11,1,11,0.00
2013-5-10,78,64,49,59,55,48,99,74,45,29.99,29.82,13,2,13,0.01
2013-5-11,68,64,57,66,59,51,96,86,70,29.83,29.65,16,4,17,0.13
2013-5-12,61,53,41,51,41,26,91,67,29,29.88,29.67,25,4,29,0.00
2013-5-13,51,44,32,36,31,26,92,62,43,30.11,29.88,15,3,15,0.00
2013-5-14,58,45,30,38,32,27,97,66,33,30.14,30.02,18,2,18,0.00
2013-5-15,67,49,30,54,42,29,97,79,54,30.07,29.60,24,3,24,0.10
2013-5-16,81,65,43,52,43,36,97,53,24,29.85,29.68,28,4,28,0.00
2013-5-17,70,59,49,47,42,39,72,53,33,30.16,29.85,16,4,16,0.00
2013-5-18,73,60,39,51,46,38,98,66,32,30.32,30.21,14,3,15,0.00
2013-5-19,60,55,46,57,53,45,98,92,84,30.31,30.15,15,3,16,0.07
2013-5-20,83,67,57,67,61,55,97,82,58,30.16,29.91,11,2,12,0.00
2013-5-21,90,71,57,73,65,56,99,85,53,29.95,29.77,18,2,19,0.43
2013-5-22,77,70,63,73,67,62,98,91,76,29.88,29.77,17,3,17,0.00
2013-5-23,75,69,66,69,66,62,97,89,80,29.82,29.71,16,3,16,0.00
2013-5-24,66,52,43,65,50,42,99,94,85,30.01,29.65,20,5,20,0.00
2013-5-25,46,45,43,45,43,41,96,94,87,30.00,29.92,23,7,23,0.00
2013-5-26,60,50,41,48,43,40,97,77,58,30.14,29.88,29,6,30,0.01
2013-5-27,71,55,35,48,39,33,98,63,29,30.22,30.11,22,3,22,0.01
2013-5-28,72,56,38,56,46,37,98,73,38,30.24,30.12,16,2,16,0.00
2013-5-29,81,65,57,72,62,56,98,91,73,30.13,29.91,26,3,27,1.03
2013-5-30,90,74,59,74,67,59,99,81,52,30.11,30.02,14,2,14,0.00
2013-5-31,94,78,62,75,68,62,99,75,45,30.11,29.91,12,2,12,0.00
2013-6-1,92,79,68,79,69,63,90,73,51,29.97,29.81,15,3,16,0.18
2013-6-2,87,76,67,76,70,66,97,83,62,29.83,29.68,18,3,19,1.06
2013-6-3,69,64,55,66,56,40,99,75,51,29.95,29.80,16,4,18,0.02
2013-6-4,72,60,47,49,44,41,85,58,39,30.13,29.94,22,6,23,0.00
2013-6-5,76,62,46,56,48,41,94,63,39,30.22,30.08,11,2,11,0.00
2013-6-6,74,61,50,58,54,50,98,80,46,30.15,30.03,18,2,19,0.44
2013-6-7,59,57,56,57,56,55,98,96,93,30.03,29.78,11,2,12,0.70
2013-6-8,73,62,54,62,57,53,98,86,67,30.06,29.72,17,4,17,0.33
2013-6-9,78,64,50,62,56,49,99,76,42,30.18,30.05,17,2,17,0.00
2013-6-10,65,59,52,64,58,51,99,96,89,30.18,29.87,9,1,9,0.74
2013-6-11,71,64,59,70,61,55,99,92,80,29.87,29.56,19,3,19,1.01
2013-6-12,73,64,54,58,55,52,97,73,50,29.85,29.66,20,6,21,0.00
2013-6-13,58,56,51,57,55,50,99,97,95,29.83,29.66,11,2,11,1.67
2013-6-14,74,64,54,63,57,53,99,81,52,29.87,29.70,15,3,15,0.05
2013-6-15,77,66,50,57,51,45,98,64,36,29.99,29.87,22,3,22,0.00
2013-6-16,75,63,49,65,57,49,98,82,66,29.97,29.69,14,2,15,0.00
2013-6-17,85,66,55,70,61,54,99,85,44,29.91,29.77,35,2,35,0.06
2013-6-18,66,60,54,59,56,52,99,85,67,29.96,29.89,19,3,19,0.01
2013-6-19,75,61,51,57,49,40,96,69,38,30.18,29.96,15,3,15,0.00
2013-6-20,81,64,45,61,54,44,98,72,44,30.28,30.17,10,1,10,0.00
2013-6-21,86,70,54,68,58,51,98,71,37,30.27,30.19,8,1,8,0.00
2013-6-22,85,73,62,69,64,60,98,75,53,30.21,30.06,16,3,16,0.00
2013-6-23,93,79,68,76,69,62,90,71,52,30.12,29.96,16,3,16,0.00
2013-6-24,93,75,66,76,70,66,99,85,49,30.03,29.92,30,2,30,1.02
2013-6-25,91,74,63,77,70,63,100,88,56,29.98,29.74,19,2,24,0.41
2013-6-26,83,74,67,73,70,66,100,88,67,29.81,29.75,15,1,15,0.00
2013-6-27,88,74,64,74,69,64,99,85,54,29.81,29.58,20,1,20,0.05
2013-6-28,83,73,68,72,69,66,99,87,65,29.59,29.37,26,4,27,1.72
2013-6-29,84,74,66,72,68,66,99,84,59,29.67,29.47,16,2,16,0.01
2013-6-30,88,74,64,74,69,64,99,86,60,29.91,29.68,15,2,15,0.01
2013-7-1,77,72,66,74,70,66,99,96,88,30.01,29.91,8,1,9,0.20
2013-7-2,86,76,68,77,73,67,99,89,70,30.11,30.01,18,3,19,0.01
2013-7-3,88,79,72,77,74,71,95,84,66,30.19,30.10,16,3,16,0.00
2013-7-4,92,81,71,78,74,70,99,81,61,30.20,30.06,15,3,15,0.00
2013-7-5,93,82,71,79,75,70,99,79,58,30.16,30.01,16,2,16,0.00
2013-7-6,88,79,70,75,72,69,98,79,57,30.10,30.00,14,2,16,0.00
2013-7-7,88,76,69,79,72,68,99,89,66,30.05,29.90,11,1,12,0.41
2013-7-8,86,77,70,74,71,68,99,82,58,30.04,29.92,13,2,14,0.00
2013-7-9,89,77,69,76,71,68,99,84,56,30.07,29.96,11,2,14,0.41
2013-7-10,84,76,70,78,73,68,98,90,75,29.98,29.76,17,2,17,0.68
2013-7-11,83,76,70,74,67,60,99,76,49,29.97,29.75,17,3,18,0.01
2013-7-12,83,74,65,68,64,60,90,73,55,30.17,29.97,12,3,13,0.00
2013-7-13,81,72,64,74,68,62,96,87,75,30.28,30.17,10,1,10,0.04
2013-7-14,92,79,69,78,73,68,99,84,57,30.33,30.20,5,1,8,0.00
2013-7-15,91,82,71,76,72,66,99,74,53,30.24,30.12,14,3,14,0.00
2013-7-16,92,81,67,77,70,66,96,72,47,30.22,30.13,13,2,13,0.00
2013-7-17,97,82,68,79,73,68,99,77,46,30.21,30.00,8,1,8,0.00
2013-7-18,95,83,72,79,74,71,99,77,51,30.04,29.92,14,2,14,0.00
2013-7-19,97,85,72,81,74,67,98,72,47,29.93,29.70,20,2,20,0.00
2013-7-20,89,77,65,76,69,62,94,77,54,29.85,29.69,17,2,19,0.02
2013-7-21,84,72,61,72,65,60,98,80,54,29.98,29.85,11,1,11,0.00
2013-7-22,88,74,65,74,66,57,97,76,55,30.01,29.81,19,2,20,0.18
2013-7-23,85,75,70,73,71,69,99,88,65,29.82,29.55,13,2,13,1.85
2013-7-24,76,70,62,70,61,51,99,75,56,30.02,29.59,22,5,22,0.01
2013-7-25,74,64,52,60,54,49,91,70,54,30.11,30.02,15,3,15,0.00
2013-7-26,78,67,60,64,58,55,97,75,54,30.08,29.99,14,3,14,0.00
2013-7-27,84,70,54,68,62,54,99,78,49,30.05,29.92,14,2,14,0.00
2013-7-28,74,69,66,70,66,63,97,92,82,29.98,29.91,11,2,12,0.57
2013-7-29,84,72,61,67,63,58,99,75,47,30.11,29.94,10,2,11,0.00
2013-7-30,79,66,54,63,59,53,99,79,48,30.17,30.07,13,2,13,0.00
2013-7-31,82,69,54,67,60,54,99,78,45,30.17,30.01,8,1,8,0.00
2013-8-1,74,67,61,68,64,60,98,91,78,30.02,29.83,19,3,20,0.04
2013-8-2,84,72,62,67,62,56,99,75,40,29.87,29.80,12,2,12,0.00
2013-8-3,80,70,61,64,59,53,96,71,41,29.88,29.80,18,3,18,0.00
2013-8-4,76,66,55,63,57,54,98,74,51,29.96,29.83,22,4,23,0.02
2013-8-5,76,65,54,56,52,47,94,65,38,30.06,29.96,18,4,18,0.00
2013-8-6,82,66,48,63,54,47,99,72,38,30.13,30.05,14,1,14,0.00
2013-8-7,77,69,60,67,63,58,95,80,67,30.13,30.02,15,3,16,0.00
2013-8-8,84,76,68,74,70,66,95,84,68,30.02,29.94,19,4,20,0.00
2013-8-9,80,74,72,74,72,67,98,93,81,29.95,29.77,14,2,14,2.78
2013-8-10,78,70,56,67,58,48,99,68,41,30.07,29.85,23,4,23,0.00
2013-8-11,80,65,50,64,56,49,98,77,47,30.13,30.00,9,1,9,0.00
2013-8-12,82,69,55,66,61,55,99,79,51,30.04,29.90,9,1,9,0.00
2013-8-13,78,68,63,71,65,58,99,93,77,29.90,29.64,19,2,19,1.29
2013-8-14,70,62,51,58,54,50,98,77,58,30.02,29.77,22,4,24,0.00
2013-8-15,74,62,50,60,54,49,98,78,45,30.13,30.01,13,2,14,0.00
2013-8-16,81,64,50,65,57,50,99,83,49,30.20,30.12,13,1,13,0.01
2013-8-17,82,66,51,67,58,50,99,80,45,30.31,30.20,8,1,8,0.00
2013-8-18,75,64,55,67,61,55,99,90,73,30.28,30.10,5,0,5,0.00
2013-8-19,81,68,60,68,63,58,99,85,49,30.11,29.99,9,1,9,0.01
2013-8-20,84,69,57,70,63,56,99,84,50,30.13,30.03,11,1,11,0.01
2013-8-21,87,71,58,73,66,58,99,85,57,30.18,30.02,8,1,8,0.00
2013-8-22,87,74,63,75,68,63,99,83,58,30.04,29.82,11,2,12,0.01
2013-8-23,76,70,60,68,59,49,91,71,40,30.17,29.89,15,4,15,0.00
2013-8-24,82,63,48,63,54,48,98,76,37,30.34,30.17,11,1,11,0.00
2013-8-25,82,64,48,65,57,47,99,80,47,30.40,30.16,12,1,12,0.00
2013-8-26,76,68,63,70,65,60,99,91,78,30.17,29.88,10,2,10,0.56
2013-8-27,84,73,66,74,69,65,99,90,66,29.92,29.84,9,2,9,0.14
2013-8-28,90,73,64,75,68,64,100,86,49,29.92,29.81,16,1,16,0.01
2013-8-29,83,72,62,71,67,62,100,86,62,30.04,29.92,7,1,7,0.00
2013-8-30,86,73,64,74,69,63,97,86,65,30.00,29.80,9,1,9,0.00
2013-8-31,84,73,69,77,71,68,99,94,76,29.81,29.73,25,2,25,0.49
2013-9-1,84,74,68,76,71,68,100,92,71,29.85,29.78,12,1,12,0.33
2013-9-2,81,73,66,76,71,65,100,93,76,29.80,29.65,7,2,12,0.48
2013-9-3,75,67,59,66,62,57,100,87,54,29.87,29.72,14,1,14,0.00
2013-9-4,79,67,56,63,58,53,98,77,42,29.97,29.87,14,2,14,0.00
2013-9-5,70,63,53,61,51,41,98,69,37,30.19,29.88,21,4,21,0.00
2013-9-6,70,55,41,54,45,38,98,74,36,30.29,30.12,10,1,10,0.00
2013-9-7,75,60,46,63,55,46,99,86,48,30.13,29.87,10,1,11,0.00
2013-9-8,71,63,48,64,54,41,97,74,37,30.14,29.80,21,3,21,0.01
2013-9-9,70,56,40,56,49,40,98,78,50,30.25,30.09,13,2,13,0.00
2013-9-10,81,69,61,75,66,56,98,90,80,30.10,29.98,13,3,15,0.15
2013-9-11,94,79,69,83,74,67,98,87,66,30.07,29.92,24,3,24,0.14
2013-9-12,82,71,67,76,69,67,99,95,79,29.94,29.67,16,2,16,0.21
2013-9-13,71,63,54,67,60,49,99,91,73,29.88,29.64,16,3,17,0.41
2013-9-14,63,56,49,53,48,45,86,76,63,30.12,29.88,16,4,16,0.00
2013-9-15,69,54,41,57,50,40,99,85,61,30.21,30.06,10,1,10,0.00
2013-9-16,65,56,43,57,52,41,98,89,68,30.33,30.03,18,3,18,0.04
2013-9-17,65,49,38,50,42,37,98,80,47,30.49,30.33,13,2,13,0.01
2013-9-18,72,53,39,55,47,39,99,85,49,30.36,30.15,8,1,8,0.01
2013-9-19,78,57,42,60,50,42,99,83,44,30.19,30.05,7,1,8,0.00
2013-9-20,80,60,45,61,54,44,99,83,48,30.10,29.94,13,1,13,0.01
2013-9-21,73,66,56,66,61,54,97,84,66,29.98,29.60,26,5,26,0.42
2013-9-22,63,58,49,61,51,44,99,78,55,29.94,29.62,19,4,22,0.21
2013-9-23,61,51,41,45,42,39,94,73,55,30.10,29.93,18,5,19,0.00
2013-9-24,66,52,35,48,43,34,97,72,46,30.09,29.88,20,4,20,0.00
2013-9-25,70,54,38,55,48,38,98,82,52,29.99,29.89,10,2,12,0.00
2013-9-26,65,56,48,52,49,47,96,80,57,30.16,29.99,15,3,15,0.00
2013-9-27,61,53,40,54,49,40,98,88,73,30.30,30.15,10,2,10,0.00
2013-9-28,75,55,44,59,51,43,99,86,51,30.38,30.24,9,1,9,0.00
2013-9-29,75,56,41,58,50,40,99,83,43,30.25,30.06,6,1,8,0.01
2013-9-30,76,56,44,58,51,44,99,85,48,30.11,29.97,7,1,7,0.00
2013-10-1,77,57,42,64,52,42,99,87,56,30.04,29.90,8,1,13,0.01
2013-10-2,76,62,48,66,57,48,99,86,61,30.03,29.90,13,2,14,0.00
2013-10-3,75,58,42,60,52,41,99,83,49,30.14,30.03,9,1,10,0.01
2013-10-4,63,58,52,60,56,52,98,95,89,30.09,30.03,9,1,9,0.45
2013-10-5,65,60,57,58,56,52,97,89,75,30.12,30.06,10,2,10,0.01
2013-10-6,63,57,52,60,55,51,98,94,85,30.12,30.03,13,2,14,0.06
2013-10-7,75,63,52,69,61,51,99,93,78,30.03,29.64,26,4,31,1.01
2013-10-8,64,53,41,50,45,40,97,77,47,30.38,29.96,18,2,18,0.00
2013-10-9,66,47,35,50,42,34,99,84,45,30.50,30.35,11,1,11,0.00
2013-10-10,58,48,36,51,45,36,99,90,67,30.36,30.18,8,1,8,0.01
2013-10-11,69,55,45,52,48,43,99,80,41,30.18,30.09,12,1,12,0.00
2013-10-12,73,58,38,56,50,38,99,77,54,30.35,30.15,21,3,21,0.00
2013-10-13,70,59,50,53,50,47,92,73,51,30.43,30.31,10,2,10,0.00
2013-10-14,68,55,42,57,50,41,99,85,61,30.36,30.23,10,1,10,0.00
2013-10-15,72,60,54,60,56,50,97,85,66,30.26,30.11,12,1,12,0.00
2013-10-16,63,57,47,56,51,44,93,81,67,30.12,29.86,15,3,16,0.00
2013-10-17,71,62,56,57,54,51,97,79,51,29.90,29.61,12,2,12,0.03
2013-10-18,66,56,40,62,48,38,97,77,38,29.95,29.58,19,3,19,0.08
2013-10-19,65,51,36,49,42,36,98,75,43,29.97,29.70,19,3,20,0.00
2013-10-20,61,52,41,50,39,34,91,65,38,30.04,29.70,21,4,21,0.00
2013-10-21,68,53,38,45,41,36,97,68,39,30.11,29.91,18,3,19,0.00
2013-10-22,55,50,34,50,43,33,95,78,59,29.91,29.77,17,3,17,0.00
2013-10-23,52,41,31,40,35,30,98,81,53,29.84,29.63,15,1,16,0.00
2013-10-24,53,42,28,37,31,27,97,70,39,29.95,29.74,24,3,24,0.00
2013-10-25,50,41,32,38,34,30,95,78,51,30.18,29.95,17,3,19,0.01
2013-10-26,53,42,29,36,32,28,97,72,43,30.18,29.84,21,4,21,0.00
2013-10-27,51,44,29,38,34,28,96,69,49,30.10,29.81,20,3,21,0.00
2013-10-28,56,41,28,40,32,26,97,73,39,30.39,30.09,21,3,23,0.01
2013-10-29,46,36,30,29,25,23,87,68,43,30.49,30.35,14,2,14,0.00
2013-10-30,53,39,31,42,35,27,96,85,65,30.36,30.20,6,1,6,0.01
2013-10-31,60,46,29,58,46,28,99,97,91,30.24,29.66,22,4,23,0.17
2013-11-1,72,63,51,63,54,42,96,75,46,29.70,29.39,31,7,32,0.09
2013-11-2,61,48,36,51,43,35,98,83,54,29.85,29.61,23,2,23,0.01
2013-11-3,42,37,28,37,26,17,81,65,46,30.50,29.85,22,7,22,0.00
2013-11-4,41,29,18,23,19,16,95,70,38,30.70,30.50,18,2,18,0.00
2013-11-5,54,39,22,40,31,21,95,75,54,30.69,30.46,19,2,19,0.00
2013-11-6,59,52,42,49,44,40,90,76,64,30.46,29.94,26,6,27,0.00
2013-11-7,56,49,41,52,44,35,95,81,70,29.95,29.78,23,6,24,0.30
2013-11-8,45,39,29,36,32,25,92,75,50,30.18,29.89,27,4,33,0.00
2013-11-9,45,37,24,33,28,21,94,72,57,30.25,29.93,13,2,14,0.00
2013-11-10,52,45,40,39,34,30,84,66,52,30.03,29.77,26,5,29,0.01
2013-11-11,49,44,39,35,31,29,70,60,47,30.17,29.92,27,4,29,0.00
2013-11-12,46,32,26,36,22,18,87,69,58,30.29,29.94,30,7,30,0.00
2013-11-13,36,27,21,20,16,13,86,64,45,30.39,30.18,22,4,23,0.00
2013-11-14,51,34,24,26,22,20,85,64,35,30.18,30.08,12,2,12,0.00
2013-11-15,57,38,25,28,23,19,82,56,28,30.21,30.10,10,2,10,0.00
2013-11-16,61,46,34,40,32,25,86,62,39,30.32,30.19,10,2,11,0.00
2013-11-17,61,51,37,58,49,33,98,94,84,30.25,29.68,25,4,26,0.02
2013-11-18,64,56,43,58,43,29,96,64,34,29.77,29.48,27,6,28,0.16
2013-11-19,43,37,28,30,24,19,79,61,51,30.40,29.77,30,8,31,0.00
2013-11-20,37,28,18,20,17,15,92,67,42,30.66,30.40,14,2,14,0.00
2013-11-21,46,31,13,33,23,11,94,76,49,30.66,30.37,13,1,16,0.00
2013-11-22,48,41,37,44,39,31,98,92,75,30.37,29.89,35,1,37,0.09
2013-11-23,46,35,24,38,25,14,91,67,46,30.05,29.87,36,8,38,0.00
2013-11-24,25,20,15,14,7,3,79,58,39,30.34,29.95,40,9,41,0.00
2013-11-25,32,24,14,17,12,4,70,58,50,30.46,30.23,21,4,22,0.00
2013-11-26,34,31,27,32,26,16,97,83,51,30.32,29.93,18,3,19,0.24
2013-11-27,40,36,32,39,33,26,98,92,75,29.93,29.42,28,6,29,1.16
2013-11-28,33,24,14,26,15,10,93,69,50,30.47,29.66,39,7,39,0.00
2013-11-29,32,24,17,19,16,12,94,74,48,30.77,30.47,15,3,16,0.00
2013-11-30,31,22,9,21,13,6,92,68,47,30.81,30.37,15,3,16,0.00
2013-12-1,41,32,24,32,27,21,93,81,68,30.37,30.03,11,1,11,0.00
2013-12-2,39,34,26,34,30,25,96,88,79,30.03,29.91,5,0,5,0.00
2013-12-3,43,32,23,37,29,22,97,89,73,30.02,29.92,11,1,11,0.00
2013-12-4,44,28,20,33,25,18,96,88,62,30.17,30.02,6,0,6,0.00
2013-12-5,53,45,27,52,43,25,97,94,87,30.16,29.89,19,5,23,0.00
2013-12-6,53,40,32,51,36,30,97,86,74,30.20,29.90,22,5,25,0.18
2013-12-7,37,32,28,31,25,19,96,76,60,30.52,30.16,23,5,24,0.04
2013-12-8,30,28,22,23,20,18,90,74,64,30.62,30.45,7,1,7,0.00
2013-12-9,36,31,26,34,29,22,97,93,78,30.45,29.92,15,4,16,0.03
2013-12-10,35,28,13,32,24,11,98,87,67,30.04,29.87,18,2,18,0.00
2013-12-11,33,25,14,22,16,11,94,71,49,30.24,30.04,18,3,19,0.00
2013-12-12,24,18,12,16,7,-4,83,63,36,30.36,30.06,16,3,16,0.00
2013-12-13,30,23,13,23,13,8,90,66,58,30.43,30.01,18,5,19,0.00
2013-12-14,17,10,8,9,5,-1,90,78,65,30.61,30.06,14,4,14,0.00
2013-12-15,31,22,11,27,20,9,95,90,76,30.06,29.58,18,3,20,0.00
2013-12-16,25,18,0,23,11,-3,94,75,57,30.25,29.77,18,3,18,0.00
2013-12-17,12,3,-10,9,0,-13,90,88,83,30.27,30.02,5,1,5,0.00
2013-12-18,26,16,6,20,13,4,93,88,78,30.10,30.00,8,1,8,0.00
2013-12-19,39,28,14,26,23,12,95,80,58,30.12,29.98,14,2,14,0.08
2013-12-20,44,37,26,35,30,23,89,77,66,30.10,29.90,10,2,10,0.04
2013-12-21,50,45,40,45,38,33,98,78,63,29.93,29.82,16,3,16,0.09
2013-12-22,60,41,33,59,40,32,99,96,86,29.95,29.61,21,2,21,0.01
2013-12-23,48,41,34,44,38,27,98,89,72,30.20,29.93,18,4,18,0.24
2013-12-24,34,27,18,27,19,9,82,71,60,30.37,30.14,26,6,27,0.00
2013-12-25,23,16,10,11,6,3,76,66,53,30.58,30.36,19,4,21,0.00
2013-12-26,30,26,20,25,19,10,95,76,57,30.41,30.12,20,4,21,0.00
2013-12-27,34,29,19,25,22,16,91,74,64,30.31,30.22,15,2,16,0.00
2013-12-28,48,32,23,32,26,20,94,79,54,30.23,30.03,18,3,19,0.00
2013-12-29,41,33,23,36,30,22,97,89,69,30.04,29.59,13,2,13,0.80
2013-12-30,34,24,10,34,19,7,98,80,62,30.25,29.66,25,5,27,0.02
2013-12-31,24,16,8,19,11,5,92,81,51,30.25,30.03,24,3,24,0.00
2014-1-1,25,19,10,14,11,6,90,71,56,30.40,30.23,17,3,18,0.00
2014-1-2,18,4,-2,15,1,-6,89,86,84,30.36,29.94,24,6,24,0.00